Time;durP1;ratioP1;P1;durP2;ratioP2;P2;SDS_P1;SDS_P2;PMS_P1;PMS_P2;Temp;Humidity;BMP_temperature;BMP_pressure;BME280_temperature;BME280_humidity;BME280_pressure;Samples;Min_cycle;Max_cycle;Signal;HPM_P1;HPM_P2
2022/06/21 00:01:08;;;;;;;7.4;4.7;;;;;;;21.03;76.2373;936.4112;;;;
2022/06/21 00:03:33;;;;;;;6.4;4.6;;;;;;;21.05;75.97266;936.4306;;;;
2022/06/21 00:06:00;;;;;;;7.8;4.7;;;;;;;21.11;75.87695;936.3947;;;;
2022/06/21 00:08:25;;;;;;;6;4.4;;;;;;;21.09;75.93262;936.3897;;;;
2022/06/21 00:10:58;;;;;;;8.1;5;;;;;;;20.86;76.96875;936.367;;;;
2022/06/21 00:13:23;;;;;;;5.7;4.1;;;;;;;20.72;77.91406;936.3705;;;;
2022/06/21 00:15:56;;;;;;;6.1;4.2;;;;;;;20.73;77.92578;936.313;;;;
2022/06/21 00:18:21;;;;;;;8.4;5.2;;;;;;;20.8;77.41406;936.3558;;;;
2022/06/21 00:20:49;;;;;;;10;4.6;;;;;;;20.86;77.44629;936.4377;;;;
2022/06/21 00:23:14;;;;;;;6.6;5.1;;;;;;;20.9;77.08008;936.4461;;;;
2022/06/21 00:25:42;;;;;;;7.5;4.8;;;;;;;20.9;76.81152;936.4233;;;;
2022/06/21 00:28:07;;;;;;;8.4;4.8;;;;;;;20.81;77.27539;936.4179;;;;
2022/06/21 00:30:32;;;;;;;7.4;4.4;;;;;;;20.8;77.33203;936.4214;;;;
2022/06/21 00:32:58;;;;;;;8.8;4.8;;;;;;;20.79;77.32031;936.4766;;;;
2022/06/21 00:35:23;;;;;;;6.6;4.6;;;;;;;20.74;77.63672;936.4331;;;;
2022/06/21 00:37:48;;;;;;;8.4;5;;;;;;;20.56;78.33105;936.4264;;;;
2022/06/21 00:40:13;;;;;;;7.8;5.6;;;;;;;20.56;78.15527;936.3826;;;;
2022/06/21 00:42:38;;;;;;;7.8;4.7;;;;;;;20.42;78.79395;936.3102;;;;
2022/06/21 00:45:04;;;;;;;6.5;4.5;;;;;;;20.32;79.27832;936.3688;;;;
2022/06/21 00:47:29;;;;;;;6.4;4.9;;;;;;;20.32;79.25684;936.3873;;;;
2022/06/21 00:49:54;;;;;;;7.2;4.8;;;;;;;20.41;78.59375;936.41;;;;
2022/06/21 00:52:19;;;;;;;6.6;4.7;;;;;;;20.49;78.10742;936.2992;;;;
2022/06/21 00:54:44;;;;;;;7.2;4.5;;;;;;;20.58;77.69141;936.2833;;;;
2022/06/21 00:57:09;;;;;;;6.2;4.6;;;;;;;20.54;77.63867;936.3008;;;;
2022/06/21 00:59:35;;;;;;;7;4.5;;;;;;;20.56;77.57129;936.3147;;;;
2022/06/21 01:02:00;;;;;;;7.6;4.6;;;;;;;20.58;77.56152;936.2407;;;;
2022/06/21 01:04:25;;;;;;;5.3;4.6;;;;;;;20.42;78.28223;936.2617;;;;
2022/06/21 01:06:50;;;;;;;6.8;5;;;;;;;20.41;77.97461;936.2806;;;;
2022/06/21 01:09:16;;;;;;;7.4;5;;;;;;;20.38;78.56738;936.2633;;;;
2022/06/21 01:11:40;;;;;;;6.3;4.8;;;;;;;20.28;78.6416;936.2319;;;;
2022/06/21 01:14:05;;;;;;;5.1;4.6;;;;;;;20.31;78.14551;936.2525;;;;
2022/06/21 01:16:31;;;;;;;7.6;4.9;;;;;;;20.31;78.65918;936.2899;;;;
2022/06/21 01:18:57;;;;;;;6.7;5;;;;;;;20.22;79.05078;936.2996;;;;
2022/06/21 01:21:22;;;;;;;6.7;4.8;;;;;;;20.16;79.04102;936.3401;;;;
2022/06/21 01:23:50;;;;;;;10.2;5.6;;;;;;;19.88;79.87695;936.366;;;;
2022/06/21 01:26:15;;;;;;;7.5;4.7;;;;;;;19.91;79.89355;936.3232;;;;
2022/06/21 01:28:40;;;;;;;6.7;5.1;;;;;;;19.84;80.60352;936.3245;;;;
2022/06/21 01:31:06;;;;;;;6;4.8;;;;;;;19.77;81.31543;936.3359;;;;
2022/06/21 01:33:31;;;;;;;7.4;4.7;;;;;;;19.73;81.29492;936.3339;;;;
2022/06/21 01:36:00;;;;;;;6.6;4.6;;;;;;;19.63;81.44043;936.2672;;;;
2022/06/21 01:38:25;;;;;;;6.2;4.7;;;;;;;19.68;81.37988;936.264;;;;
2022/06/21 01:40:51;;;;;;;6.7;5.4;;;;;;;19.6;81.75;936.1855;;;;
2022/06/21 01:43:16;;;;;;;5.5;4.5;;;;;;;19.46;82.78418;936.2223;;;;
2022/06/21 01:45:41;;;;;;;6.7;4.9;;;;;;;19.52;82.74902;936.2053;;;;
2022/06/21 01:48:07;;;;;;;6.7;5.1;;;;;;;19.63;82.1748;936.1914;;;;
2022/06/21 01:50:34;;;;;;;7.3;5.4;;;;;;;19.68;82.11523;936.1703;;;;
2022/06/21 01:52:59;;;;;;;7.1;5.3;;;;;;;19.69;82.16504;936.1749;;;;
2022/06/21 01:55:30;;;;;;;10.1;5.6;;;;;;;19.71;82.35352;936.1542;;;;
2022/06/21 01:57:55;;;;;;;8.9;6;;;;;;;19.75;81.63867;936.111;;;;
2022/06/21 02:00:20;;;;;;;7.4;5.5;;;;;;;19.79;81.87891;936.1017;;;;
2022/06/21 02:02:48;;;;;;;10.2;5;;;;;;;19.81;81.69531;936.1004;;;;
2022/06/21 02:05:17;;;;;;;9.3;6;;;;;;;19.79;81.78516;936.08;;;;
2022/06/21 02:07:42;;;;;;;9.3;5.7;;;;;;;19.85;81.21387;936.0963;;;;
2022/06/21 02:10:07;;;;;;;9.7;5.5;;;;;;;19.8;81.42676;936.0393;;;;
2022/06/21 02:12:36;;;;;;;9.5;6.1;;;;;;;19.73;81.58691;935.9816;;;;
2022/06/21 02:15:01;;;;;;;7.7;5.3;;;;;;;19.7;81.9668;935.8685;;;;
2022/06/21 02:17:26;;;;;;;8.4;5.6;;;;;;;19.78;81.63184;935.8896;;;;
2022/06/21 02:19:51;;;;;;;10.4;6.1;;;;;;;19.75;81.86035;935.9285;;;;
2022/06/21 02:22:16;;;;;;;9.1;5.8;;;;;;;19.8;81.84668;935.9197;;;;
2022/06/21 02:24:41;;;;;;;10.4;6.4;;;;;;;19.79;81.93652;935.8383;;;;
2022/06/21 02:27:10;;;;;;;10.5;6.7;;;;;;;19.81;81.91699;935.899;;;;
2022/06/21 02:29:36;;;;;;;9.3;7;;;;;;;19.82;81.97852;935.8975;;;;
2022/06/21 02:32:01;;;;;;;10.1;6.5;;;;;;;19.82;82.15332;935.8813;;;;
2022/06/21 02:34:26;;;;;;;8.4;6.8;;;;;;;19.79;82.57813;935.803;;;;
2022/06/21 02:36:51;;;;;;;8.6;6.9;;;;;;;19.82;82.41016;935.8878;;;;
2022/06/21 02:39:17;;;;;;;9;7;;;;;;;19.82;82.74609;935.908;;;;
2022/06/21 02:41:41;;;;;;;10.7;7.5;;;;;;;19.76;82.8877;935.7795;;;;
2022/06/21 02:44:07;;;;;;;11;7.7;;;;;;;19.71;83.49609;935.7834;;;;
2022/06/21 02:46:32;;;;;;;8.4;7.2;;;;;;;19.8;82.97656;935.801;;;;
2022/06/21 02:48:58;;;;;;;9;7.1;;;;;;;19.81;82.91992;935.8314;;;;
2022/06/21 02:51:23;;;;;;;10.8;7.5;;;;;;;19.8;82.74512;935.8251;;;;
2022/06/21 02:53:47;;;;;;;11.8;7.4;;;;;;;19.75;83.29395;935.7723;;;;
2022/06/21 02:56:13;;;;;;;10.1;7.3;;;;;;;19.66;83.8252;935.873;;;;
2022/06/21 02:58:38;;;;;;;10.5;7.8;;;;;;;19.75;83.62109;935.9358;;;;
2022/06/21 03:01:03;;;;;;;9.5;7.9;;;;;;;19.74;83.38477;935.928;;;;
2022/06/21 03:03:29;;;;;;;9.3;7.8;;;;;;;19.77;83.48438;935.9829;;;;
2022/06/21 03:05:56;;;;;;;11.2;8.2;;;;;;;19.68;83.8291;935.9475;;;;
2022/06/21 03:08:19;;;;;;;11.9;7.9;;;;;;;19.78;82.97266;935.9769;;;;
2022/06/21 03:10:44;;;;;;;10.7;8;;;;;;;19.79;83.18457;935.9288;;;;
2022/06/21 03:13:14;;;;;;;9.6;7.3;;;;;;;19.84;82.91309;935.9949;;;;
2022/06/21 03:15:45;;;;;;;9.9;7.5;;;;;;;19.79;83.48828;936.008;;;;
2022/06/21 03:18:10;;;;;;;12;7.8;;;;;;;19.83;83.07617;935.9652;;;;
2022/06/21 03:20:35;;;;;;;8.7;7;;;;;;;19.91;82.7168;936.0168;;;;
2022/06/21 03:23:05;;;;;;;10.2;7.2;;;;;;;19.94;82.44336;936.0475;;;;
2022/06/21 03:25:30;;;;;;;10.6;7.8;;;;;;;19.94;82.32715;935.9836;;;;
2022/06/21 03:27:57;;;;;;;11.7;7.8;;;;;;;19.92;82.28809;935.9512;;;;
2022/06/21 03:30:22;;;;;;;10.4;7.5;;;;;;;19.85;82.89355;935.9839;;;;
2022/06/21 03:32:49;;;;;;;9.5;7.6;;;;;;;19.73;83.39551;935.9928;;;;
2022/06/21 03:35:16;;;;;;;10.7;7.9;;;;;;;19.62;83.44531;935.9815;;;;
2022/06/21 03:37:46;;;;;;;11.9;7.4;;;;;;;19.58;84.01953;935.9734;;;;
2022/06/21 03:42:45;;;;;;;11.2;7.3;;;;;;;19.6;83.75488;936.0078;;;;
2022/06/21 03:45:16;;;;;;;11.5;7.7;;;;;;;19.64;83.4834;936.0803;;;;
2022/06/21 03:47:41;;;;;;;8.7;6.9;;;;;;;19.66;83.26367;936.0887;;;;
2022/06/21 03:50:07;;;;;;;11.5;7.6;;;;;;;19.69;83.51367;936.0822;;;;
2022/06/21 03:52:44;;;;;;;8.5;6.8;;;;;;;19.65;83.78906;936.0678;;;;
2022/06/21 03:54:57;;;;;;;9.9;7.5;;;;;;;19.64;83.65918;936.0342;;;;
2022/06/21 03:57:25;;;;;;;7.9;7.1;;;;;;;19.67;83.29102;936.0044;;;;
2022/06/21 03:59:50;;;;;;;10;7.4;;;;;;;19.55;84.20117;935.9955;;;;
2022/06/21 04:02:39;;;;;;;8.8;7.5;;;;;;;19.63;83.80664;935.9626;;;;
2022/06/21 04:05:07;;;;;;;8.2;7.4;;;;;;;19.69;83.50195;935.9498;;;;
2022/06/21 04:07:38;;;;;;;9.4;6.6;;;;;;;19.76;83.0498;935.8895;;;;
2022/06/21 04:10:04;;;;;;;10.2;7;;;;;;;19.79;82.27539;936.0016;;;;
2022/06/21 04:12:29;;;;;;;9;7.5;;;;;;;19.74;82.29004;936.0183;;;;
2022/06/21 04:14:55;;;;;;;11.4;7.6;;;;;;;19.87;81.74316;936.085;;;;
2022/06/21 04:17:25;;;;;;;8.9;7.1;;;;;;;19.91;81.3291;936.0275;;;;
2022/06/21 04:19:50;;;;;;;11;7.2;;;;;;;19.96;81.57227;935.9961;;;;
2022/06/21 04:22:15;;;;;;;9.4;7.2;;;;;;;19.93;81.64844;936.0083;;;;
2022/06/21 04:24:40;;;;;;;10.5;7.9;;;;;;;19.9;81.78223;936.0108;;;;
2022/06/21 04:27:06;;;;;;;10.7;7.3;;;;;;;19.84;82.1084;935.9342;;;;
2022/06/21 04:29:31;;;;;;;8.9;7.3;;;;;;;19.8;82.20703;935.8826;;;;
2022/06/21 04:31:56;;;;;;;10.7;8.6;;;;;;;19.73;82.88086;935.921;;;;
2022/06/21 04:34:21;;;;;;;10.5;8.3;;;;;;;19.78;82.50684;935.9083;;;;
2022/06/21 04:36:46;;;;;;;11.6;8.5;;;;;;;19.89;81.68848;935.884;;;;
2022/06/21 04:39:11;;;;;;;10.7;8.1;;;;;;;19.87;81.76563;935.8994;;;;
2022/06/21 04:41:37;;;;;;;11.9;8.6;;;;;;;19.85;82.53125;935.8652;;;;
2022/06/21 04:44:02;;;;;;;10.1;8.4;;;;;;;19.91;81.79492;935.9136;;;;
2022/06/21 04:46:28;;;;;;;10.7;8.3;;;;;;;19.84;82.29492;935.885;;;;
2022/06/21 04:48:54;;;;;;;14.5;9.3;;;;;;;19.84;83.21777;935.8153;;;;
2022/06/21 04:51:19;;;;;;;9.5;8.3;;;;;;;19.89;83.08691;935.7905;;;;
2022/06/21 04:53:44;;;;;;;10.4;8.2;;;;;;;19.98;81.79688;935.7867;;;;
2022/06/21 04:56:12;;;;;;;13.4;8.3;;;;;;;19.85;82.97461;935.7285;;;;
2022/06/21 04:58:41;;;;;;;16.6;8.4;;;;;;;20.11;81.56543;935.7112;;;;
2022/06/21 05:01:29;;;;;;;11.9;7.9;;;;;;;20.21;80.79004;935.7558;;;;
2022/06/21 05:03:32;;;;;;;9.6;7.5;;;;;;;20.33;79.78418;935.6981;;;;
2022/06/21 05:05:57;;;;;;;10.6;7.5;;;;;;;20.28;80.58105;935.7133;;;;
2022/06/21 05:08:24;;;;;;;13;7.8;;;;;;;20.29;80.76758;935.7011;;;;
2022/06/21 05:10:49;;;;;;;9.9;7.3;;;;;;;20.25;80.67969;935.716;;;;
2022/06/21 05:13:16;;;;;;;10.2;7.5;;;;;;;20.27;81.02148;935.6953;;;;
2022/06/21 05:15:49;;;;;;;11.2;7.4;;;;;;;20.45;80.39941;935.6472;;;;
2022/06/21 05:18:14;;;;;;;8.8;7.6;;;;;;;20.49;80.79395;935.6965;;;;
2022/06/21 05:20:39;;;;;;;9.3;7.2;;;;;;;20.84;79.11719;935.692;;;;
2022/06/21 05:23:07;;;;;;;11.8;7.5;;;;;;;20.79;78.38281;935.7006;;;;
2022/06/21 05:25:32;;;;;;;7.8;6.2;;;;;;;21.26;77.7168;935.7333;;;;
2022/06/21 05:27:57;;;;;;;9.6;6.8;;;;;;;21.13;76.64063;935.6813;;;;
2022/06/21 05:30:23;;;;;;;10.2;6.4;;;;;;;21.19;77.30664;935.7358;;;;
2022/06/21 05:32:48;;;;;;;8.7;6.4;;;;;;;21.33;74.98926;935.6781;;;;
2022/06/21 05:35:13;;;;;;;8.1;6.3;;;;;;;21.34;74.89844;935.6711;;;;
2022/06/21 05:37:39;;;;;;;9.8;6.5;;;;;;;21.71;74.90234;935.6588;;;;
2022/06/21 05:40:08;;;;;;;8.8;6.5;;;;;;;21.69;75.54199;935.6914;;;;
2022/06/21 05:42:33;;;;;;;10.7;6.9;;;;;;;22.01;73.74609;935.6883;;;;
2022/06/21 05:44:58;;;;;;;8.3;6.1;;;;;;;22.54;71.74609;935.6448;;;;
2022/06/21 05:47:25;;;;;;;7.8;7;;;;;;;22.51;70.47266;935.6168;;;;
2022/06/21 05:49:50;;;;;;;6.6;5.9;;;;;;;22.52;70.65137;935.6203;;;;
2022/06/21 05:52:15;;;;;;;7.2;5.9;;;;;;;22.81;69.85059;935.5756;;;;
2022/06/21 05:54:41;;;;;;;6.8;5.5;;;;;;;23.67;67.5752;935.5765;;;;
2022/06/21 05:57:05;;;;;;;6.9;5.5;;;;;;;24.41;64.46973;935.5834;;;;
2022/06/21 05:59:31;;;;;;;9.3;6;;;;;;;23.89;64.7373;935.5999;;;;
2022/06/21 06:01:56;;;;;;;7.7;5.9;;;;;;;23.67;66.35156;935.5415;;;;
2022/06/21 06:04:21;;;;;;;9.1;6.2;;;;;;;23.67;65.89258;935.5861;;;;
2022/06/21 06:06:51;;;;;;;13.3;5.8;;;;;;;23.15;66.82422;935.6432;;;;
2022/06/21 06:09:16;;;;;;;9.7;6.6;;;;;;;22.88;68.71094;935.6252;;;;
2022/06/21 06:12:00;;;;;;;9.2;6.2;;;;;;;22.95;70.3418;935.6345;;;;
2022/06/21 06:14:14;;;;;;;7.1;5.6;;;;;;;23.03;67.60742;935.5914;;;;
2022/06/21 06:16:42;;;;;;;11.1;6.4;;;;;;;23.42;66.74902;935.5664;;;;
2022/06/21 06:19:07;;;;;;;10.5;6.6;;;;;;;23.24;66.8291;935.5922;;;;
2022/06/21 06:21:32;;;;;;;8.3;6.4;;;;;;;22.97;67.26855;935.597;;;;
2022/06/21 06:23:57;;;;;;;10.2;6.5;;;;;;;23.02;69.13086;935.6071;;;;
2022/06/21 06:26:22;;;;;;;8.3;5.5;;;;;;;23.85;64.68359;935.6017;;;;
2022/06/21 06:28:48;;;;;;;8.4;6.6;;;;;;;23.49;67.23047;935.5717;;;;
2022/06/21 06:31:13;;;;;;;8.5;5.6;;;;;;;24.64;61.93359;935.6167;;;;
2022/06/21 06:33:38;;;;;;;5.3;4.8;;;;;;;26.46;57.84082;935.6149;;;;
2022/06/21 06:36:03;;;;;;;9.4;4.9;;;;;;;26.95;55.74707;935.5973;;;;
2022/06/21 06:38:28;;;;;;;5.3;4.6;;;;;;;28.02;52.38672;935.5347;;;;
2022/06/21 06:40:53;;;;;;;9.2;5.3;;;;;;;26.93;54.5127;935.5533;;;;
2022/06/21 06:43:19;;;;;;;6;4.9;;;;;;;27.09;56.91504;935.5251;;;;
2022/06/21 06:45:45;;;;;;;9.2;5;;;;;;;27.8;52.54004;935.5097;;;;
2022/06/21 06:48:15;;;;;;;8.1;5;;;;;;;27.25;55.28613;935.4562;;;;
2022/06/21 06:50:40;;;;;;;6.1;4.6;;;;;;;28.3;52.38379;935.4612;;;;
2022/06/21 06:53:06;;;;;;;6.3;4.5;;;;;;;29.65;49.29883;935.5054;;;;
2022/06/21 06:55:31;;;;;;;6.5;4.5;;;;;;;29.09;48.72559;935.4866;;;;
2022/06/21 06:58:00;;;;;;;5.4;4.7;;;;;;;28.68;50.38281;935.4838;;;;
2022/06/21 07:00:31;;;;;;;6.7;4.6;;;;;;;27.88;51.72949;935.4835;;;;
2022/06/21 07:02:56;;;;;;;4.9;3.8;;;;;;;28.81;50.8252;935.4639;;;;
2022/06/21 07:05:22;;;;;;;6.1;4;;;;;;;28.07;54.03223;935.4539;;;;
2022/06/21 07:07:47;;;;;;;7;4.3;;;;;;;28.34;52.54395;935.4543;;;;
2022/06/21 07:10:12;;;;;;;6.6;4.4;;;;;;;28.55;50.87793;935.4497;;;;
2022/06/21 07:12:38;;;;;;;6.8;4.7;;;;;;;27.76;51.33496;935.467;;;;
2022/06/21 07:15:08;;;;;;;9.3;4.9;;;;;;;27.78;53.00098;935.4668;;;;
2022/06/21 07:17:33;;;;;;;5.3;4.7;;;;;;;26.77;54.68164;935.4766;;;;
2022/06/21 07:19:58;;;;;;;7.2;4.8;;;;;;;25.96;57.78906;935.496;;;;
2022/06/21 07:22:23;;;;;;;8.6;5.4;;;;;;;25.2;58.57617;935.4405;;;;
2022/06/21 07:24:49;;;;;;;26.7;7.4;;;;;;;24.94;60.81738;935.4796;;;;
2022/06/21 07:27:15;;;;;;;10.1;5;;;;;;;24.67;63.5293;935.4899;;;;
2022/06/21 07:29:40;;;;;;;8.2;4.8;;;;;;;25;60.99121;935.4276;;;;
2022/06/21 07:32:09;;;;;;;6.7;5.3;;;;;;;24.78;62.26953;935.4855;;;;
2022/06/21 07:34:34;;;;;;;6.1;5.2;;;;;;;26.05;60.70898;935.4704;;;;
2022/06/21 07:36:59;;;;;;;5.9;4.8;;;;;;;25.93;59.60645;935.4315;;;;
2022/06/21 07:39:25;;;;;;;13.1;5.2;;;;;;;26.4;59.35938;935.4041;;;;
2022/06/21 07:41:50;;;;;;;8.2;5;;;;;;;26.73;57.20117;935.3538;;;;
2022/06/21 07:44:17;;;;;;;8.5;4.8;;;;;;;27.73;53.82617;935.363;;;;
2022/06/21 07:46:42;;;;;;;5.1;4.2;;;;;;;27.96;54.88574;935.3994;;;;
2022/06/21 07:49:08;;;;;;;6.9;4.7;;;;;;;27.75;52.91309;935.3017;;;;
2022/06/21 07:51:33;;;;;;;5.1;4.6;;;;;;;28.01;51.53027;935.2173;;;;
2022/06/21 07:53:58;;;;;;;5.1;4.6;;;;;;;29.08;51.77246;935.2957;;;;
2022/06/21 07:56:23;;;;;;;7.1;4.1;;;;;;;30.8;46.08887;935.2597;;;;
2022/06/21 07:58:48;;;;;;;6.1;4;;;;;;;30.51;46.47754;935.27;;;;
2022/06/21 08:08:38;;;;;;;5.4;4.3;;;;;;;29.62;48.87793;935.2104;;;;
2022/06/21 08:11:03;;;;;;;5.7;4.4;;;;;;;30.87;45.96484;935.1939;;;;
2022/06/21 08:13:32;;;;;;;5;4.4;;;;;;;30.63;47.89941;935.2919;;;;
2022/06/21 08:15:57;;;;;;;8.4;4.4;;;;;;;30.34;47.78613;935.2551;;;;
2022/06/21 08:18:23;;;;;;;6.3;4.4;;;;;;;31.23;45.15137;935.2385;;;;
2022/06/21 08:20:51;;;;;;;6.2;4.5;;;;;;;31.15;45.38281;935.2676;;;;
2022/06/21 08:23:16;;;;;;;6.3;4.2;;;;;;;31.62;43.28711;935.3139;;;;
2022/06/21 08:25:41;;;;;;;5.5;4.1;;;;;;;31.48;43.84766;935.2717;;;;
2022/06/21 08:28:06;;;;;;;6.3;4.4;;;;;;;32.68;41.22754;935.2514;;;;
2022/06/21 08:30:32;;;;;;;4.8;4.1;;;;;;;33.13;40.89648;935.272;;;;
2022/06/21 08:33:07;;;;;;;5.5;3.9;;;;;;;33.21;40.0498;935.2161;;;;
2022/06/21 08:35:34;;;;;;;11.4;4.4;;;;;;;32.39;41.87305;935.1753;;;;
2022/06/21 08:38:00;;;;;;;7.5;4.3;;;;;;;31;45.02148;935.1939;;;;
2022/06/21 08:40:26;;;;;;;7.8;4.5;;;;;;;29.02;51.30176;935.1846;;;;
2022/06/21 08:42:52;;;;;;;6.1;3.7;;;;;;;29.44;50.75391;935.1802;;;;
2022/06/21 08:45:42;;;;;;;5.3;3.7;;;;;;;29.53;49.69043;935.2522;;;;
2022/06/21 08:47:49;;;;;;;5.8;3.7;;;;;;;30.14;47.23926;935.1721;;;;
2022/06/21 08:50:14;;;;;;;4.7;3.7;;;;;;;30.71;46.86816;935.2073;;;;
2022/06/21 08:52:41;;;;;;;4.6;3.7;;;;;;;30.64;45.64355;935.2451;;;;
2022/06/21 08:55:05;;;;;;;5.7;3.6;;;;;;;30.27;46.50098;935.2147;;;;
2022/06/21 08:57:30;;;;;;;4.9;3.7;;;;;;;30.48;45.16113;935.2719;;;;
2022/06/21 08:59:58;;;;;;;6.1;4;;;;;;;30.44;45.53906;935.2961;;;;
2022/06/21 09:02:23;;;;;;;4.9;3.6;;;;;;;30.83;46.72656;935.2762;;;;
2022/06/21 09:04:48;;;;;;;4.6;3.9;;;;;;;29.02;51.69531;935.3387;;;;
2022/06/21 09:07:14;;;;;;;5.5;3.6;;;;;;;30.16;47.08691;935.4012;;;;
2022/06/21 09:09:39;;;;;;;4.2;3.5;;;;;;;29.98;48.20117;935.3499;;;;
2022/06/21 09:12:06;;;;;;;4;3.6;;;;;;;29.35;48.94434;935.4086;;;;
2022/06/21 09:14:31;;;;;;;5.2;3.5;;;;;;;28.68;50.45313;935.4047;;;;
2022/06/21 09:16:57;;;;;;;6.4;3.7;;;;;;;28.46;52.86719;935.3943;;;;
2022/06/21 09:19:22;;;;;;;7.8;4.2;;;;;;;28.95;51.66211;935.4478;;;;
2022/06/21 09:21:49;;;;;;;5.7;4.1;;;;;;;29.45;48.70605;935.3904;;;;
2022/06/21 09:24:13;;;;;;;11.2;4.5;;;;;;;29.45;49.93359;935.3904;;;;
2022/06/21 09:26:38;;;;;;;5;3.8;;;;;;;29.66;48.7627;935.3474;;;;
2022/06/21 09:29:04;;;;;;;5.8;4.3;;;;;;;29.17;51.25879;935.3505;;;;
2022/06/21 09:31:29;;;;;;;6.5;4.1;;;;;;;29.53;48.47559;935.3831;;;;
2022/06/21 09:33:55;;;;;;;4.6;3.8;;;;;;;29.62;49.12891;935.3591;;;;
2022/06/21 09:36:19;;;;;;;5.7;4.1;;;;;;;28.66;52.74805;935.3785;;;;
2022/06/21 09:38:44;;;;;;;5.6;4;;;;;;;28.23;52.89844;935.3303;;;;
2022/06/21 09:41:10;;;;;;;7.2;4;;;;;;;28.52;51.35156;935.2914;;;;
2022/06/21 09:43:35;;;;;;;4.1;3.7;;;;;;;28.56;53.0459;935.3045;;;;
2022/06/21 09:46:00;;;;;;;6.2;4.2;;;;;;;28.46;52.89063;935.3751;;;;
2022/06/21 09:48:26;;;;;;;17.9;5.5;;;;;;;27.29;56.56055;935.4053;;;;
2022/06/21 09:50:52;;;;;;;8.6;5.1;;;;;;;26.55;59.75879;935.4252;;;;
2022/06/21 09:53:16;;;;;;;5.7;4.9;;;;;;;26.16;59.24609;935.4225;;;;
2022/06/21 09:55:42;;;;;;;7.8;5.1;;;;;;;25.88;59.71582;935.4453;;;;
2022/06/21 09:58:07;;;;;;;8.6;5.4;;;;;;;25.33;62.00586;935.5226;;;;
2022/06/21 10:00:32;;;;;;;14.9;5.8;;;;;;;25.81;60.28711;935.5862;;;;
2022/06/21 10:02:58;;;;;;;8.7;5;;;;;;;25.44;61.07422;935.5672;;;;
2022/06/21 10:05:27;;;;;;;6.4;4.9;;;;;;;25.33;61.81641;935.5295;;;;
2022/06/21 10:07:52;;;;;;;9.2;4.8;;;;;;;25.32;61.81543;935.56;;;;
2022/06/21 10:10:18;;;;;;;9.8;5.7;;;;;;;25.18;63.38867;935.6143;;;;
2022/06/21 10:12:43;;;;;;;6.9;4.9;;;;;;;25.75;61.63867;935.618;;;;
2022/06/21 10:15:12;;;;;;;6.9;4.5;;;;;;;26.27;59.09473;935.5808;;;;
2022/06/21 10:17:36;;;;;;;7.2;5.4;;;;;;;26.14;61.0166;935.4891;;;;
2022/06/21 10:20:01;;;;;;;6.3;4.7;;;;;;;26.24;60.71191;935.6625;;;;
2022/06/21 10:22:26;;;;;;;5.9;4.6;;;;;;;26.82;56.89258;935.6376;;;;
2022/06/21 10:24:51;;;;;;;8.5;5.5;;;;;;;26.68;57.64355;935.543;;;;
2022/06/21 10:27:17;;;;;;;10.4;5.2;;;;;;;26.91;59.66504;935.5359;;;;
2022/06/21 10:29:42;;;;;;;17.4;5.5;;;;;;;26.98;59.82715;935.5229;;;;
2022/06/21 10:32:09;;;;;;;8.9;5.7;;;;;;;25.91;62.02637;935.6091;;;;
2022/06/21 10:34:36;;;;;;;10.1;6;;;;;;;26.42;61.3877;935.5947;;;;
2022/06/21 10:37:01;;;;;;;6.3;5.1;;;;;;;26.32;59.31348;935.6713;;;;
2022/06/21 10:39:27;;;;;;;7;5;;;;;;;26.13;61.00391;935.6236;;;;
2022/06/21 10:42:48;;;;;;;9.8;5;;;;;;;26.59;58.65039;935.5555;;;;
2022/06/21 10:44:18;;;;;;;8.2;5.3;;;;;;;26.82;57.86426;935.5151;;;;
2022/06/21 10:46:44;;;;;;;6.6;4.8;;;;;;;26.73;60.11426;935.5338;;;;
2022/06/21 10:49:08;;;;;;;8.6;4.9;;;;;;;27.1;57.85156;935.5736;;;;
2022/06/21 10:51:36;;;;;;;7.8;5;;;;;;;27.09;57.74512;935.4966;;;;
2022/06/21 10:54:01;;;;;;;6.8;5.1;;;;;;;26.91;59.74805;935.4091;;;;
2022/06/21 10:58:52;;;;;;;8.3;5.4;;;;;;;27.08;60.43359;935.2625;;;;
2022/06/21 11:01:21;;;;;;;31.2;7.9;;;;;;;27.19;58.80078;935.2238;;;;
2022/06/21 11:03:47;;;;;;;9.6;5;;;;;;;27.52;57.40723;935.3398;;;;
2022/06/21 11:06:17;;;;;;;6.7;5;;;;;;;27.38;57.59082;935.3412;;;;
2022/06/21 11:08:42;;;;;;;7.3;5.1;;;;;;;27.15;56.63672;935.2556;;;;
2022/06/21 11:11:07;;;;;;;14.5;5.5;;;;;;;27;59.21484;935.1516;;;;
2022/06/21 11:13:32;;;;;;;9.3;4.8;;;;;;;27.04;60.33398;935.1175;;;;
2022/06/21 11:16:04;;;;;;;7.8;5.2;;;;;;;27.5;59.06641;935.0875;;;;
2022/06/21 11:18:28;;;;;;;6.4;4.8;;;;;;;27.68;58.40039;935.0948;;;;
2022/06/21 11:20:55;;;;;;;5.7;5.1;;;;;;;27.38;59.70313;935.0073;;;;
2022/06/21 11:23:25;;;;;;;7;5;;;;;;;27.63;58.47754;935.0478;;;;
2022/06/21 11:25:52;;;;;;;7.9;5.3;;;;;;;27.39;58.36328;935.0244;;;;
2022/06/21 11:28:17;;;;;;;8.3;5.5;;;;;;;27.61;59.08105;934.9476;;;;
2022/06/21 11:30:45;;;;;;;7.9;5.5;;;;;;;27.45;58.12207;934.9761;;;;
2022/06/21 11:33:09;;;;;;;7.2;4.9;;;;;;;27.47;58.48145;934.9483;;;;
2022/06/21 11:35:35;;;;;;;7;5.1;;;;;;;27.63;57.95703;934.8881;;;;
2022/06/21 11:38:02;;;;;;;58.6;9.9;;;;;;;27.73;56.85352;934.8293;;;;
2022/06/21 11:40:31;;;;;;;11.4;6;;;;;;;27.85;57.10645;934.7883;;;;
2022/06/21 11:42:56;;;;;;;8.5;5.1;;;;;;;27.9;55.78223;934.771;;;;
2022/06/21 11:45:22;;;;;;;6.9;4.9;;;;;;;27.85;56.00195;934.7441;;;;
2022/06/21 11:47:48;;;;;;;9.1;5.3;;;;;;;27.25;59.82813;934.7252;;;;
2022/06/21 11:50:20;;;;;;;20.3;5.6;;;;;;;27.1;60.30566;934.5969;;;;
2022/06/21 11:52:46;;;;;;;9.2;5.5;;;;;;;26.77;62.82031;934.4994;;;;
2022/06/21 11:55:13;;;;;;;10.6;5.5;;;;;;;26.82;62.55566;934.5634;;;;
2022/06/21 11:57:39;;;;;;;12;5.3;;;;;;;27.16;60.83594;934.4819;;;;
2022/06/21 12:00:05;;;;;;;10.5;5;;;;;;;27.58;57.4043;934.4954;;;;
2022/06/21 12:02:29;;;;;;;7.5;4.9;;;;;;;27.81;56.67285;934.4122;;;;
2022/06/21 12:04:54;;;;;;;5;4.3;;;;;;;28.17;55.58984;934.4659;;;;
2022/06/21 12:07:19;;;;;;;10.1;4.5;;;;;;;28.42;53.90723;934.4059;;;;
2022/06/21 12:09:44;;;;;;;6.2;4.2;;;;;;;28.7;54.25;934.3839;;;;
2022/06/21 12:12:09;;;;;;;6.6;4.8;;;;;;;28.35;56.66992;934.2975;;;;
2022/06/21 12:14:35;;;;;;;6;4.9;;;;;;;27.75;57.46094;934.2523;;;;
2022/06/21 12:17:00;;;;;;;41.5;8.1;;;;;;;28.02;55.66504;934.2861;;;;
2022/06/21 12:19:25;;;;;;;7.1;5.2;;;;;;;28.03;55.94141;934.2127;;;;
2022/06/21 12:21:51;;;;;;;21.9;5.7;;;;;;;28.18;55.62695;934.3086;;;;
2022/06/21 12:24:16;;;;;;;20.4;6.8;;;;;;;27.94;56.86719;934.2406;;;;
2022/06/21 12:26:41;;;;;;;6.1;4.3;;;;;;;28.34;54.7666;934.1442;;;;
2022/06/21 12:29:08;;;;;;;6.2;5.3;;;;;;;28.09;58.39551;934.1223;;;;
2022/06/21 12:31:35;;;;;;;8.4;4.9;;;;;;;28.4;55.60547;934.092;;;;
2022/06/21 12:34:00;;;;;;;7.8;4.9;;;;;;;28.43;56.7041;934.0742;;;;
2022/06/21 12:36:26;;;;;;;6.8;4.6;;;;;;;28.38;58.87305;934.0639;;;;
2022/06/21 12:38:51;;;;;;;6.4;4.3;;;;;;;28.26;58.21582;933.992;;;;
2022/06/21 12:41:16;;;;;;;7.5;4.1;;;;;;;28.45;54.99414;933.9568;;;;
2022/06/21 12:43:41;;;;;;;8.9;4.6;;;;;;;28.66;54.53223;933.887;;;;
2022/06/21 12:46:06;;;;;;;7.6;4.4;;;;;;;28.83;55.71875;933.8576;;;;
2022/06/21 12:48:35;;;;;;;6.7;5;;;;;;;28.55;55.91016;933.8566;;;;
2022/06/21 12:51:04;;;;;;;6.9;4.8;;;;;;;28.29;57.28027;933.8245;;;;
2022/06/21 12:53:30;;;;;;;9.7;4.4;;;;;;;28.61;56.2998;933.8695;;;;
2022/06/21 12:55:58;;;;;;;6.3;4.7;;;;;;;28.72;54.33691;933.7009;;;;
2022/06/21 12:58:26;;;;;;;7.6;4.3;;;;;;;28.91;53.91895;933.6142;;;;
2022/06/21 13:00:51;;;;;;;8;4.2;;;;;;;29.05;53.53125;933.5298;;;;
2022/06/21 13:03:16;;;;;;;8.6;4.7;;;;;;;29.22;52.21777;933.64;;;;
2022/06/21 13:05:44;;;;;;;5.6;4.1;;;;;;;28.79;54.27441;933.7161;;;;
2022/06/21 13:08:14;;;;;;;5.3;3.9;;;;;;;28.76;53.9248;933.7586;;;;
2022/06/21 13:10:39;;;;;;;9.6;4.8;;;;;;;27.98;56.77734;933.7885;;;;
2022/06/21 13:13:04;;;;;;;6.6;4.6;;;;;;;27.91;55.69922;933.7872;;;;
2022/06/21 13:15:30;;;;;;;6.2;4.5;;;;;;;27.64;57.95703;933.7784;;;;
2022/06/21 13:17:55;;;;;;;6.6;4.1;;;;;;;27.79;58.48633;933.7952;;;;
2022/06/21 13:20:22;;;;;;;8;4.1;;;;;;;28.02;55.71289;933.7747;;;;
2022/06/21 13:22:47;;;;;;;17.8;5.9;;;;;;;28.17;56.125;933.8613;;;;
2022/06/21 13:25:19;;;;;;;20.8;5.5;;;;;;;27.95;58.31836;933.9123;;;;
2022/06/21 13:27:51;;;;;;;14.2;5;;;;;;;27.85;57.99707;933.803;;;;
2022/06/21 13:30:20;;;;;;;8.6;4.8;;;;;;;27.86;56.07422;933.706;;;;
2022/06/21 13:32:45;;;;;;;8.2;4.6;;;;;;;27.97;56.01465;933.5389;;;;
2022/06/21 13:35:11;;;;;;;6.8;4.4;;;;;;;28.12;55.80859;933.4058;;;;
2022/06/21 13:37:37;;;;;;;7.1;4.2;;;;;;;28.58;55.66309;933.4076;;;;
2022/06/21 13:40:04;;;;;;;6.3;4.3;;;;;;;28.72;56.07422;933.383;;;;
2022/06/21 13:42:40;;;;;;;6.3;4.4;;;;;;;28.69;54.23828;933.408;;;;
2022/06/21 13:44:56;;;;;;;11.7;6.3;;;;;;;28.91;55.57324;933.2886;;;;
2022/06/21 13:47:27;;;;;;;6.6;4;;;;;;;28.9;53.8584;933.2946;;;;
2022/06/21 13:49:55;;;;;;;10.1;4.6;;;;;;;28.88;54.60645;933.3301;;;;
2022/06/21 13:52:21;;;;;;;34.3;6.2;;;;;;;28.9;53.91797;933.3664;;;;
2022/06/21 13:54:45;;;;;;;24;5.3;;;;;;;28.82;54.41992;933.3691;;;;
2022/06/21 13:57:11;;;;;;;8.7;4.6;;;;;;;28.62;55.7998;933.3186;;;;
2022/06/21 13:59:37;;;;;;;35.2;7.1;;;;;;;27.67;58.04492;933.2578;;;;
2022/06/21 14:02:02;;;;;;;9.4;4.3;;;;;;;27.7;57.49023;933.2617;;;;
2022/06/21 14:04:27;;;;;;;7.7;4.2;;;;;;;27.75;60.13281;933.2286;;;;
2022/06/21 14:06:54;;;;;;;7.1;4.2;;;;;;;28.06;56.82324;933.2853;;;;
2022/06/21 14:09:17;;;;;;;6.2;4;;;;;;;28.15;54.45801;933.3103;;;;
2022/06/21 14:11:43;;;;;;;5.3;4.3;;;;;;;28.15;54.95703;933.1973;;;;
2022/06/21 14:14:08;;;;;;;6.8;4.2;;;;;;;28.08;55.11621;933.1501;;;;
2022/06/21 14:16:33;;;;;;;5.4;4.4;;;;;;;28.33;54.8252;933.0383;;;;
2022/06/21 14:18:58;;;;;;;7.2;4.1;;;;;;;28.29;57.88574;933.0416;;;;
2022/06/21 14:21:24;;;;;;;8.2;4.3;;;;;;;28.17;57.64551;933.082;;;;
2022/06/21 14:23:49;;;;;;;6.6;4.8;;;;;;;28.38;55.40234;933.0397;;;;
2022/06/21 14:26:15;;;;;;;7;4.4;;;;;;;28.4;55.52344;933.0538;;;;
2022/06/21 14:28:39;;;;;;;7.4;4;;;;;;;28.41;53.64551;933.0759;;;;